sensor_id;sensor_type;location;lat;lon;timestamp;P1;durP1;ratioP1;P2;durP2;ratioP2
64887;SDS011;51386;53.082;8.816;2023-03-20T00:00:41;22.93;;;14.73;;
64887;SDS011;51386;53.082;8.816;2023-03-20T00:03:12;24.57;;;15.77;;
64887;SDS011;51386;53.082;8.816;2023-03-20T00:05:41;22.10;;;15.43;;
64887;SDS011;51386;53.082;8.816;2023-03-20T00:08:08;27.30;;;16.33;;
64887;SDS011;51386;53.082;8.816;2023-03-20T00:10:35;24.87;;;16.70;;
64887;SDS011;51386;53.082;8.816;2023-03-20T00:13:07;23.43;;;15.67;;
64887;SDS011;51386;53.082;8.816;2023-03-20T00:15:40;24.43;;;16.07;;
64887;SDS011;51386;53.082;8.816;2023-03-20T00:18:13;24.70;;;16.27;;
64887;SDS011;51386;53.082;8.816;2023-03-20T00:20:45;23.23;;;14.60;;
64887;SDS011;51386;53.082;8.816;2023-03-20T00:23:12;24.23;;;16.97;;
64887;SDS011;51386;53.082;8.816;2023-03-20T00:25:40;24.30;;;15.43;;
64887;SDS011;51386;53.082;8.816;2023-03-20T00:28:20;21.17;;;14.80;;
64887;SDS011;51386;53.082;8.816;2023-03-20T00:31:04;24.70;;;15.37;;
64887;SDS011;51386;53.082;8.816;2023-03-20T00:33:43;21.33;;;15.63;;
64887;SDS011;51386;53.082;8.816;2023-03-20T00:36:12;22.47;;;15.63;;
64887;SDS011;51386;53.082;8.816;2023-03-20T00:38:39;23.97;;;15.70;;
64887;SDS011;51386;53.082;8.816;2023-03-20T00:41:10;26.53;;;15.63;;
64887;SDS011;51386;53.082;8.816;2023-03-20T00:43:49;22.67;;;15.27;;
64887;SDS011;51386;53.082;8.816;2023-03-20T00:46:20;22.90;;;15.60;;
64887;SDS011;51386;53.082;8.816;2023-03-20T00:48:47;24.07;;;15.77;;
64887;SDS011;51386;53.082;8.816;2023-03-20T00:51:17;21.00;;;15.30;;
64887;SDS011;51386;53.082;8.816;2023-03-20T00:53:45;21.53;;;15.47;;
64887;SDS011;51386;53.082;8.816;2023-03-20T00:56:24;25.10;;;16.33;;
64887;SDS011;51386;53.082;8.816;2023-03-20T00:58:59;24.13;;;15.87;;
64887;SDS011;51386;53.082;8.816;2023-03-20T01:01:28;23.33;;;17.97;;
64887;SDS011;51386;53.082;8.816;2023-03-20T01:03:57;25.57;;;17.37;;
64887;SDS011;51386;53.082;8.816;2023-03-20T01:06:26;22.97;;;15.97;;
64887;SDS011;51386;53.082;8.816;2023-03-20T01:08:54;24.07;;;17.70;;
64887;SDS011;51386;53.082;8.816;2023-03-20T01:11:22;23.13;;;16.33;;
64887;SDS011;51386;53.082;8.816;2023-03-20T01:13:50;25.40;;;17.80;;
64887;SDS011;51386;53.082;8.816;2023-03-20T01:16:19;23.93;;;17.37;;
64887;SDS011;51386;53.082;8.816;2023-03-20T01:18:48;23.30;;;16.77;;
64887;SDS011;51386;53.082;8.816;2023-03-20T01:21:16;22.90;;;15.87;;
64887;SDS011;51386;53.082;8.816;2023-03-20T01:23:45;22.57;;;15.80;;
64887;SDS011;51386;53.082;8.816;2023-03-20T01:26:19;21.37;;;15.00;;
64887;SDS011;51386;53.082;8.816;2023-03-20T01:28:52;20.87;;;15.20;;
64887;SDS011;51386;53.082;8.816;2023-03-20T01:31:19;23.20;;;15.67;;
64887;SDS011;51386;53.082;8.816;2023-03-20T01:33:46;19.67;;;14.70;;
64887;SDS011;51386;53.082;8.816;2023-03-20T01:36:14;23.63;;;15.73;;
64887;SDS011;51386;53.082;8.816;2023-03-20T01:38:48;17.80;;;13.40;;
64887;SDS011;51386;53.082;8.816;2023-03-20T01:41:20;22.17;;;15.53;;
64887;SDS011;51386;53.082;8.816;2023-03-20T01:43:50;16.87;;;12.20;;
64887;SDS011;51386;53.082;8.816;2023-03-20T01:46:18;16.77;;;10.67;;
64887;SDS011;51386;53.082;8.816;2023-03-20T01:48:55;12.20;;;10.03;;
64887;SDS011;51386;53.082;8.816;2023-03-20T01:51:30;10.50;;;7.93;;
64887;SDS011;51386;53.082;8.816;2023-03-20T01:54:00;7.83;;;6.80;;
64887;SDS011;51386;53.082;8.816;2023-03-20T01:56:34;7.93;;;6.97;;
64887;SDS011;51386;53.082;8.816;2023-03-20T01:59:08;7.20;;;6.33;;
64887;SDS011;51386;53.082;8.816;2023-03-20T02:01:41;7.50;;;6.30;;
64887;SDS011;51386;53.082;8.816;2023-03-20T02:04:09;7.37;;;6.00;;
64887;SDS011;51386;53.082;8.816;2023-03-20T02:06:39;10.90;;;5.97;;
64887;SDS011;51386;53.082;8.816;2023-03-20T02:09:11;7.00;;;6.10;;
64887;SDS011;51386;53.082;8.816;2023-03-20T02:11:39;7.33;;;5.90;;
64887;SDS011;51386;53.082;8.816;2023-03-20T02:14:10;9.07;;;6.70;;
64887;SDS011;51386;53.082;8.816;2023-03-20T02:16:39;7.20;;;6.20;;
64887;SDS011;51386;53.082;8.816;2023-03-20T02:19:08;7.53;;;6.70;;
64887;SDS011;51386;53.082;8.816;2023-03-20T02:22:00;7.37;;;5.90;;
64887;SDS011;51386;53.082;8.816;2023-03-20T02:25:17;7.07;;;5.97;;
64887;SDS011;51386;53.082;8.816;2023-03-20T02:28:40;7.33;;;5.90;;
64887;SDS011;51386;53.082;8.816;2023-03-20T02:31:58;7.13;;;5.60;;
64887;SDS011;51386;53.082;8.816;2023-03-20T02:35:15;6.73;;;5.70;;
64887;SDS011;51386;53.082;8.816;2023-03-20T02:38:23;8.17;;;5.90;;
64887;SDS011;51386;53.082;8.816;2023-03-20T02:41:20;6.27;;;4.93;;
64887;SDS011;51386;53.082;8.816;2023-03-20T02:43:58;7.10;;;6.40;;
64887;SDS011;51386;53.082;8.816;2023-03-20T02:46:35;6.97;;;6.00;;
64887;SDS011;51386;53.082;8.816;2023-03-20T02:49:16;5.60;;;5.00;;
64887;SDS011;51386;53.082;8.816;2023-03-20T02:51:59;6.37;;;5.33;;
64887;SDS011;51386;53.082;8.816;2023-03-20T02:54:38;6.33;;;4.70;;
64887;SDS011;51386;53.082;8.816;2023-03-20T02:57:15;5.33;;;4.67;;
64887;SDS011;51386;53.082;8.816;2023-03-20T02:59:53;5.70;;;5.10;;
64887;SDS011;51386;53.082;8.816;2023-03-20T03:02:27;6.17;;;5.20;;
64887;SDS011;51386;53.082;8.816;2023-03-20T03:05:03;6.53;;;4.93;;
64887;SDS011;51386;53.082;8.816;2023-03-20T03:07:38;5.03;;;4.53;;
64887;SDS011;51386;53.082;8.816;2023-03-20T03:10:12;5.90;;;4.80;;
64887;SDS011;51386;53.082;8.816;2023-03-20T03:12:45;5.77;;;4.93;;
64887;SDS011;51386;53.082;8.816;2023-03-20T03:15:18;5.70;;;4.30;;
64887;SDS011;51386;53.082;8.816;2023-03-20T03:17:53;5.83;;;5.00;;
64887;SDS011;51386;53.082;8.816;2023-03-20T03:20:23;5.50;;;4.30;;
64887;SDS011;51386;53.082;8.816;2023-03-20T03:22:55;5.80;;;4.73;;
64887;SDS011;51386;53.082;8.816;2023-03-20T03:25:26;5.53;;;4.43;;
64887;SDS011;51386;53.082;8.816;2023-03-20T03:28:00;7.17;;;5.40;;
64887;SDS011;51386;53.082;8.816;2023-03-20T03:30:33;6.60;;;4.77;;
64887;SDS011;51386;53.082;8.816;2023-03-20T03:33:11;6.67;;;4.57;;
64887;SDS011;51386;53.082;8.816;2023-03-20T03:35:43;6.83;;;5.23;;
64887;SDS011;51386;53.082;8.816;2023-03-20T03:38:17;5.57;;;4.97;;
64887;SDS011;51386;53.082;8.816;2023-03-20T03:40:59;6.00;;;5.03;;
64887;SDS011;51386;53.082;8.816;2023-03-20T03:43:44;5.67;;;4.83;;
64887;SDS011;51386;53.082;8.816;2023-03-20T03:46:19;7.23;;;4.60;;
64887;SDS011;51386;53.082;8.816;2023-03-20T03:48:55;4.80;;;4.33;;
64887;SDS011;51386;53.082;8.816;2023-03-20T03:51:25;6.57;;;5.87;;
64887;SDS011;51386;53.082;8.816;2023-03-20T03:53:57;6.17;;;5.43;;
64887;SDS011;51386;53.082;8.816;2023-03-20T03:56:32;7.10;;;5.13;;
64887;SDS011;51386;53.082;8.816;2023-03-20T03:59:04;6.03;;;5.37;;
64887;SDS011;51386;53.082;8.816;2023-03-20T04:01:37;6.50;;;5.33;;
64887;SDS011;51386;53.082;8.816;2023-03-20T04:04:09;7.07;;;5.87;;
64887;SDS011;51386;53.082;8.816;2023-03-20T04:06:41;7.40;;;6.53;;
64887;SDS011;51386;53.082;8.816;2023-03-20T04:09:08;6.03;;;5.43;;
64887;SDS011;51386;53.082;8.816;2023-03-20T04:11:36;6.60;;;5.87;;
64887;SDS011;51386;53.082;8.816;2023-03-20T04:14:03;7.43;;;6.40;;
64887;SDS011;51386;53.082;8.816;2023-03-20T04:16:30;9.13;;;6.53;;
64887;SDS011;51386;53.082;8.816;2023-03-20T04:18:57;7.87;;;6.73;;
64887;SDS011;51386;53.082;8.816;2023-03-20T04:21:24;7.63;;;6.20;;
64887;SDS011;51386;53.082;8.816;2023-03-20T04:23:51;8.03;;;6.83;;
64887;SDS011;51386;53.082;8.816;2023-03-20T04:26:18;8.00;;;7.13;;
64887;SDS011;51386;53.082;8.816;2023-03-20T04:28:48;8.87;;;7.23;;
64887;SDS011;51386;53.082;8.816;2023-03-20T04:31:16;7.13;;;6.30;;
64887;SDS011;51386;53.082;8.816;2023-03-20T04:33:43;7.07;;;6.33;;
64887;SDS011;51386;53.082;8.816;2023-03-20T04:36:10;9.37;;;7.70;;
64887;SDS011;51386;53.082;8.816;2023-03-20T04:38:37;9.10;;;7.17;;
64887;SDS011;51386;53.082;8.816;2023-03-20T04:41:05;8.10;;;6.33;;
64887;SDS011;51386;53.082;8.816;2023-03-20T04:43:33;8.87;;;6.90;;
64887;SDS011;51386;53.082;8.816;2023-03-20T04:46:01;8.53;;;7.50;;
64887;SDS011;51386;53.082;8.816;2023-03-20T04:48:28;8.03;;;7.20;;
64887;SDS011;51386;53.082;8.816;2023-03-20T04:50:55;7.97;;;6.63;;
64887;SDS011;51386;53.082;8.816;2023-03-20T04:53:22;9.53;;;7.33;;
64887;SDS011;51386;53.082;8.816;2023-03-20T04:55:52;9.47;;;7.67;;
64887;SDS011;51386;53.082;8.816;2023-03-20T04:58:19;7.70;;;6.90;;
64887;SDS011;51386;53.082;8.816;2023-03-20T05:00:46;10.00;;;8.37;;
64887;SDS011;51386;53.082;8.816;2023-03-20T05:03:14;10.83;;;8.27;;
64887;SDS011;51386;53.082;8.816;2023-03-20T05:05:41;7.90;;;6.80;;
64887;SDS011;51386;53.082;8.816;2023-03-20T05:08:08;10.30;;;7.90;;
64887;SDS011;51386;53.082;8.816;2023-03-20T05:10:36;10.13;;;7.47;;
64887;SDS011;51386;53.082;8.816;2023-03-20T05:13:03;8.33;;;7.37;;
64887;SDS011;51386;53.082;8.816;2023-03-20T05:15:30;9.37;;;7.27;;
64887;SDS011;51386;53.082;8.816;2023-03-20T05:17:57;8.63;;;7.33;;
64887;SDS011;51386;53.082;8.816;2023-03-20T05:20:25;8.07;;;6.97;;
64887;SDS011;51386;53.082;8.816;2023-03-20T05:22:52;9.00;;;6.73;;
64887;SDS011;51386;53.082;8.816;2023-03-20T05:25:19;8.83;;;6.90;;
64887;SDS011;51386;53.082;8.816;2023-03-20T05:27:46;10.37;;;8.70;;
64887;SDS011;51386;53.082;8.816;2023-03-20T05:30:13;10.53;;;9.43;;
64887;SDS011;51386;53.082;8.816;2023-03-20T05:32:41;9.77;;;7.70;;
64887;SDS011;51386;53.082;8.816;2023-03-20T05:35:09;10.03;;;7.80;;
64887;SDS011;51386;53.082;8.816;2023-03-20T05:37:38;11.20;;;8.50;;
64887;SDS011;51386;53.082;8.816;2023-03-20T05:40:05;11.60;;;8.73;;
64887;SDS011;51386;53.082;8.816;2023-03-20T05:42:36;10.97;;;8.67;;
64887;SDS011;51386;53.082;8.816;2023-03-20T05:45:03;9.83;;;8.13;;
64887;SDS011;51386;53.082;8.816;2023-03-20T05:47:31;9.10;;;7.83;;
64887;SDS011;51386;53.082;8.816;2023-03-20T05:49:58;10.17;;;8.27;;
64887;SDS011;51386;53.082;8.816;2023-03-20T05:52:25;9.33;;;8.13;;
64887;SDS011;51386;53.082;8.816;2023-03-20T05:54:53;10.27;;;8.60;;
64887;SDS011;51386;53.082;8.816;2023-03-20T05:57:20;11.23;;;9.23;;
64887;SDS011;51386;53.082;8.816;2023-03-20T05:59:48;10.13;;;8.50;;
64887;SDS011;51386;53.082;8.816;2023-03-20T06:02:15;12.50;;;8.27;;
64887;SDS011;51386;53.082;8.816;2023-03-20T06:04:42;11.00;;;8.90;;
64887;SDS011;51386;53.082;8.816;2023-03-20T06:07:09;10.73;;;8.37;;
64887;SDS011;51386;53.082;8.816;2023-03-20T06:09:36;11.77;;;8.47;;
64887;SDS011;51386;53.082;8.816;2023-03-20T06:12:04;9.73;;;8.00;;
64887;SDS011;51386;53.082;8.816;2023-03-20T06:14:32;12.07;;;8.37;;
64887;SDS011;51386;53.082;8.816;2023-03-20T06:16:59;9.50;;;8.30;;
64887;SDS011;51386;53.082;8.816;2023-03-20T06:19:26;12.03;;;9.40;;
64887;SDS011;51386;53.082;8.816;2023-03-20T06:21:53;10.60;;;8.10;;
64887;SDS011;51386;53.082;8.816;2023-03-20T06:24:20;10.87;;;8.20;;
64887;SDS011;51386;53.082;8.816;2023-03-20T06:26:48;10.83;;;8.43;;
64887;SDS011;51386;53.082;8.816;2023-03-20T06:29:16;10.47;;;8.83;;
64887;SDS011;51386;53.082;8.816;2023-03-20T06:31:43;10.70;;;8.37;;
64887;SDS011;51386;53.082;8.816;2023-03-20T06:34:10;9.93;;;8.07;;
64887;SDS011;51386;53.082;8.816;2023-03-20T06:36:37;13.13;;;8.53;;
64887;SDS011;51386;53.082;8.816;2023-03-20T06:39:04;9.50;;;7.83;;
64887;SDS011;51386;53.082;8.816;2023-03-20T06:41:33;9.87;;;7.77;;
64887;SDS011;51386;53.082;8.816;2023-03-20T06:44:00;11.97;;;8.20;;
64887;SDS011;51386;53.082;8.816;2023-03-20T06:46:30;10.40;;;7.60;;
64887;SDS011;51386;53.082;8.816;2023-03-20T06:48:57;11.60;;;7.57;;
64887;SDS011;51386;53.082;8.816;2023-03-20T06:51:24;7.90;;;6.97;;
64887;SDS011;51386;53.082;8.816;2023-03-20T06:53:51;10.93;;;7.53;;
64887;SDS011;51386;53.082;8.816;2023-03-20T06:56:18;8.87;;;7.47;;
64887;SDS011;51386;53.082;8.816;2023-03-20T06:58:45;9.93;;;7.23;;
64887;SDS011;51386;53.082;8.816;2023-03-20T07:01:12;8.63;;;7.23;;
64887;SDS011;51386;53.082;8.816;2023-03-20T07:03:44;8.00;;;6.77;;
64887;SDS011;51386;53.082;8.816;2023-03-20T07:06:11;8.23;;;6.80;;
64887;SDS011;51386;53.082;8.816;2023-03-20T07:08:38;8.53;;;7.40;;
64887;SDS011;51386;53.082;8.816;2023-03-20T07:11:06;8.60;;;7.30;;
64887;SDS011;51386;53.082;8.816;2023-03-20T07:13:33;9.63;;;7.60;;
64887;SDS011;51386;53.082;8.816;2023-03-20T07:16:00;9.17;;;7.93;;
64887;SDS011;51386;53.082;8.816;2023-03-20T07:18:30;9.07;;;7.87;;
64887;SDS011;51386;53.082;8.816;2023-03-20T07:20:59;9.63;;;7.17;;
64887;SDS011;51386;53.082;8.816;2023-03-20T07:23:29;8.93;;;7.03;;
64887;SDS011;51386;53.082;8.816;2023-03-20T07:25:57;9.23;;;8.13;;
64887;SDS011;51386;53.082;8.816;2023-03-20T07:28:24;9.30;;;6.77;;
64887;SDS011;51386;53.082;8.816;2023-03-20T07:30:52;10.80;;;7.27;;
64887;SDS011;51386;53.082;8.816;2023-03-20T07:33:19;10.33;;;6.73;;
64887;SDS011;51386;53.082;8.816;2023-03-20T07:35:50;8.77;;;6.90;;
64887;SDS011;51386;53.082;8.816;2023-03-20T07:38:20;9.37;;;7.30;;
64887;SDS011;51386;53.082;8.816;2023-03-20T07:40:48;8.67;;;6.87;;
64887;SDS011;51386;53.082;8.816;2023-03-20T07:43:19;8.57;;;7.07;;
64887;SDS011;51386;53.082;8.816;2023-03-20T07:45:46;8.60;;;6.37;;
64887;SDS011;51386;53.082;8.816;2023-03-20T07:48:13;10.70;;;7.00;;
64887;SDS011;51386;53.082;8.816;2023-03-20T07:50:44;9.57;;;6.93;;
64887;SDS011;51386;53.082;8.816;2023-03-20T07:53:11;11.20;;;8.07;;
64887;SDS011;51386;53.082;8.816;2023-03-20T07:55:39;8.63;;;7.43;;
64887;SDS011;51386;53.082;8.816;2023-03-20T07:58:06;11.23;;;7.70;;
64887;SDS011;51386;53.082;8.816;2023-03-20T08:00:34;12.37;;;8.03;;
64887;SDS011;51386;53.082;8.816;2023-03-20T08:03:01;9.53;;;7.70;;
64887;SDS011;51386;53.082;8.816;2023-03-20T08:05:29;10.00;;;8.00;;
64887;SDS011;51386;53.082;8.816;2023-03-20T08:07:56;8.97;;;6.63;;
64887;SDS011;51386;53.082;8.816;2023-03-20T08:10:23;13.60;;;7.27;;
64887;SDS011;51386;53.082;8.816;2023-03-20T08:12:52;7.73;;;6.90;;
64887;SDS011;51386;53.082;8.816;2023-03-20T08:15:19;9.13;;;7.33;;
64887;SDS011;51386;53.082;8.816;2023-03-20T08:17:46;8.67;;;5.70;;
64887;SDS011;51386;53.082;8.816;2023-03-20T08:20:13;8.90;;;6.60;;
64887;SDS011;51386;53.082;8.816;2023-03-20T08:22:42;7.77;;;6.47;;
64887;SDS011;51386;53.082;8.816;2023-03-20T08:25:10;11.20;;;6.90;;
64887;SDS011;51386;53.082;8.816;2023-03-20T08:27:37;8.80;;;6.37;;
64887;SDS011;51386;53.082;8.816;2023-03-20T08:30:06;8.43;;;6.17;;
64887;SDS011;51386;53.082;8.816;2023-03-20T08:32:35;9.13;;;6.60;;
64887;SDS011;51386;53.082;8.816;2023-03-20T08:35:03;9.70;;;6.73;;
64887;SDS011;51386;53.082;8.816;2023-03-20T08:37:31;8.50;;;6.67;;
64887;SDS011;51386;53.082;8.816;2023-03-20T08:39:58;7.83;;;5.83;;
64887;SDS011;51386;53.082;8.816;2023-03-20T08:42:25;10.17;;;7.43;;
64887;SDS011;51386;53.082;8.816;2023-03-20T08:44:52;11.07;;;6.93;;
64887;SDS011;51386;53.082;8.816;2023-03-20T08:47:20;10.47;;;7.23;;
64887;SDS011;51386;53.082;8.816;2023-03-20T08:49:47;14.13;;;6.90;;
64887;SDS011;51386;53.082;8.816;2023-03-20T08:52:15;12.43;;;7.30;;
64887;SDS011;51386;53.082;8.816;2023-03-20T08:54:42;10.23;;;7.67;;
64887;SDS011;51386;53.082;8.816;2023-03-20T08:57:09;8.33;;;6.83;;
64887;SDS011;51386;53.082;8.816;2023-03-20T08:59:36;10.07;;;6.77;;
64887;SDS011;51386;53.082;8.816;2023-03-20T09:02:04;7.33;;;6.40;;
64887;SDS011;51386;53.082;8.816;2023-03-20T09:04:33;9.77;;;6.67;;
64887;SDS011;51386;53.082;8.816;2023-03-20T09:07:00;9.10;;;6.70;;
64887;SDS011;51386;53.082;8.816;2023-03-20T09:09:28;7.97;;;6.63;;
64887;SDS011;51386;53.082;8.816;2023-03-20T09:11:55;7.87;;;6.17;;
64887;SDS011;51386;53.082;8.816;2023-03-20T09:14:24;9.33;;;6.60;;
64887;SDS011;51386;53.082;8.816;2023-03-20T09:16:53;6.97;;;6.17;;
64887;SDS011;51386;53.082;8.816;2023-03-20T09:19:20;7.73;;;5.90;;
64887;SDS011;51386;53.082;8.816;2023-03-20T09:21:48;7.97;;;6.53;;
64887;SDS011;51386;53.082;8.816;2023-03-20T09:24:15;11.47;;;6.70;;
64887;SDS011;51386;53.082;8.816;2023-03-20T09:26:42;9.80;;;6.27;;
64887;SDS011;51386;53.082;8.816;2023-03-20T09:29:09;9.53;;;6.37;;
64887;SDS011;51386;53.082;8.816;2023-03-20T09:31:36;7.60;;;6.50;;
64887;SDS011;51386;53.082;8.816;2023-03-20T09:34:03;11.33;;;6.33;;
64887;SDS011;51386;53.082;8.816;2023-03-20T09:36:31;9.67;;;6.53;;
64887;SDS011;51386;53.082;8.816;2023-03-20T09:38:59;7.40;;;6.27;;
64887;SDS011;51386;53.082;8.816;2023-03-20T09:41:27;7.30;;;5.80;;
64887;SDS011;51386;53.082;8.816;2023-03-20T09:44:00;8.50;;;6.17;;
64887;SDS011;51386;53.082;8.816;2023-03-20T09:46:42;6.60;;;5.37;;
64887;SDS011;51386;53.082;8.816;2023-03-20T09:49:47;8.67;;;5.60;;
64887;SDS011;51386;53.082;8.816;2023-03-20T09:52:33;13.97;;;8.00;;
64887;SDS011;51386;53.082;8.816;2023-03-20T09:55:11;10.10;;;6.37;;
64887;SDS011;51386;53.082;8.816;2023-03-20T09:57:42;8.13;;;6.17;;
64887;SDS011;51386;53.082;8.816;2023-03-20T10:00:16;7.90;;;5.90;;
64887;SDS011;51386;53.082;8.816;2023-03-20T10:02:47;8.80;;;6.43;;
64887;SDS011;51386;53.082;8.816;2023-03-20T10:05:19;7.73;;;5.43;;
64887;SDS011;51386;53.082;8.816;2023-03-20T10:07:50;6.47;;;5.60;;
64887;SDS011;51386;53.082;8.816;2023-03-20T10:10:25;10.53;;;8.00;;
64887;SDS011;51386;53.082;8.816;2023-03-20T10:13:09;8.70;;;6.00;;
64887;SDS011;51386;53.082;8.816;2023-03-20T10:16:02;7.67;;;6.47;;
64887;SDS011;51386;53.082;8.816;2023-03-20T10:18:44;6.70;;;5.37;;
64887;SDS011;51386;53.082;8.816;2023-03-20T10:21:26;6.40;;;5.10;;
64887;SDS011;51386;53.082;8.816;2023-03-20T10:24:09;7.60;;;5.57;;
64887;SDS011;51386;53.082;8.816;2023-03-20T10:26:47;6.33;;;4.93;;
64887;SDS011;51386;53.082;8.816;2023-03-20T10:29:23;6.90;;;5.23;;
64887;SDS011;51386;53.082;8.816;2023-03-20T10:32:04;6.23;;;5.00;;
64887;SDS011;51386;53.082;8.816;2023-03-20T10:34:47;5.27;;;4.17;;
64887;SDS011;51386;53.082;8.816;2023-03-20T10:37:32;7.13;;;5.20;;
64887;SDS011;51386;53.082;8.816;2023-03-20T10:40:24;8.43;;;6.50;;
64887;SDS011;51386;53.082;8.816;2023-03-20T10:42:58;9.03;;;5.83;;
64887;SDS011;51386;53.082;8.816;2023-03-20T10:45:36;6.63;;;5.13;;
64887;SDS011;51386;53.082;8.816;2023-03-20T10:48:10;7.07;;;4.50;;
64887;SDS011;51386;53.082;8.816;2023-03-20T10:50:45;7.47;;;4.50;;
64887;SDS011;51386;53.082;8.816;2023-03-20T10:53:19;6.50;;;3.93;;
64887;SDS011;51386;53.082;8.816;2023-03-20T10:55:58;8.37;;;4.20;;
64887;SDS011;51386;53.082;8.816;2023-03-20T10:58:32;5.57;;;4.53;;
64887;SDS011;51386;53.082;8.816;2023-03-20T11:01:04;6.43;;;4.47;;
64887;SDS011;51386;53.082;8.816;2023-03-20T11:03:33;5.17;;;4.60;;
64887;SDS011;51386;53.082;8.816;2023-03-20T11:06:05;6.40;;;4.83;;
64887;SDS011;51386;53.082;8.816;2023-03-20T11:08:44;6.17;;;4.30;;
64887;SDS011;51386;53.082;8.816;2023-03-20T11:11:20;7.13;;;4.60;;
64887;SDS011;51386;53.082;8.816;2023-03-20T11:13:51;4.87;;;3.50;;
64887;SDS011;51386;53.082;8.816;2023-03-20T11:16:20;7.57;;;4.93;;
64887;SDS011;51386;53.082;8.816;2023-03-20T11:18:50;6.57;;;4.20;;
64887;SDS011;51386;53.082;8.816;2023-03-20T11:21:22;6.73;;;4.57;;
64887;SDS011;51386;53.082;8.816;2023-03-20T11:23:52;7.10;;;4.17;;
64887;SDS011;51386;53.082;8.816;2023-03-20T11:26:27;8.73;;;4.60;;
64887;SDS011;51386;53.082;8.816;2023-03-20T11:29:02;5.87;;;3.63;;
64887;SDS011;51386;53.082;8.816;2023-03-20T11:31:33;6.67;;;4.37;;
64887;SDS011;51386;53.082;8.816;2023-03-20T11:34:18;7.23;;;4.47;;
64887;SDS011;51386;53.082;8.816;2023-03-20T11:36:55;6.30;;;4.13;;
64887;SDS011;51386;53.082;8.816;2023-03-20T11:39:35;7.03;;;4.33;;
64887;SDS011;51386;53.082;8.816;2023-03-20T11:42:18;6.33;;;4.83;;
64887;SDS011;51386;53.082;8.816;2023-03-20T11:44:57;6.20;;;4.30;;
64887;SDS011;51386;53.082;8.816;2023-03-20T11:47:28;7.93;;;4.40;;
64887;SDS011;51386;53.082;8.816;2023-03-20T11:50:00;5.60;;;4.50;;
64887;SDS011;51386;53.082;8.816;2023-03-20T11:52:31;5.93;;;4.70;;
64887;SDS011;51386;53.082;8.816;2023-03-20T11:55:03;5.47;;;4.20;;
64887;SDS011;51386;53.082;8.816;2023-03-20T11:57:45;9.17;;;4.40;;
64887;SDS011;51386;53.082;8.816;2023-03-20T12:00:16;7.67;;;4.83;;
64887;SDS011;51386;53.082;8.816;2023-03-20T12:02:46;6.37;;;5.00;;
64887;SDS011;51386;53.082;8.816;2023-03-20T12:05:18;6.77;;;4.83;;
64887;SDS011;51386;53.082;8.816;2023-03-20T12:07:59;7.00;;;5.67;;
64887;SDS011;51386;53.082;8.816;2023-03-20T12:10:33;9.10;;;5.97;;
64887;SDS011;51386;53.082;8.816;2023-03-20T12:13:09;7.53;;;4.80;;
64887;SDS011;51386;53.082;8.816;2023-03-20T12:15:47;8.33;;;4.73;;
64887;SDS011;51386;53.082;8.816;2023-03-20T12:18:21;8.40;;;5.70;;
64887;SDS011;51386;53.082;8.816;2023-03-20T12:20:58;8.03;;;4.60;;
64887;SDS011;51386;53.082;8.816;2023-03-20T12:23:37;11.93;;;5.73;;
64887;SDS011;51386;53.082;8.816;2023-03-20T12:26:11;6.33;;;5.00;;
64887;SDS011;51386;53.082;8.816;2023-03-20T12:28:45;7.60;;;5.30;;
64887;SDS011;51386;53.082;8.816;2023-03-20T12:31:22;9.87;;;4.93;;
64887;SDS011;51386;53.082;8.816;2023-03-20T12:33:56;6.83;;;5.00;;
64887;SDS011;51386;53.082;8.816;2023-03-20T12:36:32;7.27;;;4.87;;
64887;SDS011;51386;53.082;8.816;2023-03-20T12:39:03;11.37;;;5.93;;
64887;SDS011;51386;53.082;8.816;2023-03-20T12:41:37;5.70;;;4.63;;
64887;SDS011;51386;53.082;8.816;2023-03-20T12:44:15;8.33;;;5.37;;
64887;SDS011;51386;53.082;8.816;2023-03-20T12:47:14;7.53;;;4.70;;
64887;SDS011;51386;53.082;8.816;2023-03-20T12:50:24;7.50;;;4.73;;
64887;SDS011;51386;53.082;8.816;2023-03-20T12:53:02;5.93;;;4.63;;
64887;SDS011;51386;53.082;8.816;2023-03-20T12:55:54;6.60;;;4.80;;
64887;SDS011;51386;53.082;8.816;2023-03-20T12:58:41;8.47;;;5.67;;
64887;SDS011;51386;53.082;8.816;2023-03-20T13:01:25;7.73;;;5.23;;
64887;SDS011;51386;53.082;8.816;2023-03-20T13:04:02;7.13;;;5.53;;
64887;SDS011;51386;53.082;8.816;2023-03-20T13:06:51;5.67;;;4.40;;
64887;SDS011;51386;53.082;8.816;2023-03-20T13:09:42;7.77;;;5.07;;
64887;SDS011;51386;53.082;8.816;2023-03-20T13:12:35;6.63;;;5.47;;
64887;SDS011;51386;53.082;8.816;2023-03-20T13:15:26;7.20;;;5.37;;
64887;SDS011;51386;53.082;8.816;2023-03-20T13:18:07;8.00;;;5.37;;
64887;SDS011;51386;53.082;8.816;2023-03-20T13:20:47;6.53;;;4.97;;
64887;SDS011;51386;53.082;8.816;2023-03-20T13:23:20;6.67;;;4.60;;
64887;SDS011;51386;53.082;8.816;2023-03-20T13:26:01;7.50;;;5.30;;
64887;SDS011;51386;53.082;8.816;2023-03-20T13:28:49;7.30;;;4.80;;
64887;SDS011;51386;53.082;8.816;2023-03-20T13:31:33;7.87;;;5.10;;
64887;SDS011;51386;53.082;8.816;2023-03-20T13:34:20;8.63;;;5.77;;
64887;SDS011;51386;53.082;8.816;2023-03-20T13:37:04;7.57;;;5.70;;
64887;SDS011;51386;53.082;8.816;2023-03-20T13:39:53;6.27;;;4.47;;
64887;SDS011;51386;53.082;8.816;2023-03-20T13:42:31;6.37;;;4.80;;
64887;SDS011;51386;53.082;8.816;2023-03-20T13:45:11;6.70;;;5.00;;
64887;SDS011;51386;53.082;8.816;2023-03-20T13:47:55;6.97;;;5.53;;
64887;SDS011;51386;53.082;8.816;2023-03-20T13:53:19;7.17;;;4.93;;
64887;SDS011;51386;53.082;8.816;2023-03-20T13:55:59;6.47;;;4.57;;
64887;SDS011;51386;53.082;8.816;2023-03-20T13:58:48;8.43;;;5.53;;
64887;SDS011;51386;53.082;8.816;2023-03-20T14:01:30;8.90;;;5.43;;
64887;SDS011;51386;53.082;8.816;2023-03-20T14:04:15;8.27;;;4.70;;
64887;SDS011;51386;53.082;8.816;2023-03-20T14:06:47;7.00;;;4.33;;
64887;SDS011;51386;53.082;8.816;2023-03-20T14:09:25;6.77;;;4.77;;
64887;SDS011;51386;53.082;8.816;2023-03-20T14:11:59;7.27;;;4.90;;
64887;SDS011;51386;53.082;8.816;2023-03-20T14:14:30;7.63;;;4.90;;
64887;SDS011;51386;53.082;8.816;2023-03-20T14:17:11;7.57;;;4.87;;
64887;SDS011;51386;53.082;8.816;2023-03-20T14:19:43;6.73;;;4.70;;
64887;SDS011;51386;53.082;8.816;2023-03-20T14:22:13;7.90;;;5.30;;
64887;SDS011;51386;53.082;8.816;2023-03-20T14:24:48;8.37;;;5.63;;
64887;SDS011;51386;53.082;8.816;2023-03-20T14:27:21;7.77;;;4.80;;
64887;SDS011;51386;53.082;8.816;2023-03-20T14:33:04;8.13;;;5.20;;
64887;SDS011;51386;53.082;8.816;2023-03-20T14:35:49;7.83;;;5.00;;
64887;SDS011;51386;53.082;8.816;2023-03-20T14:38:38;6.13;;;4.73;;
64887;SDS011;51386;53.082;8.816;2023-03-20T14:41:23;9.17;;;4.70;;
64887;SDS011;51386;53.082;8.816;2023-03-20T14:44:04;10.47;;;5.53;;
64887;SDS011;51386;53.082;8.816;2023-03-20T14:46:50;6.07;;;4.27;;
64887;SDS011;51386;53.082;8.816;2023-03-20T14:49:36;8.87;;;4.80;;
64887;SDS011;51386;53.082;8.816;2023-03-20T14:55:27;9.80;;;4.43;;
64887;SDS011;51386;53.082;8.816;2023-03-20T15:01:15;8.00;;;5.53;;
64887;SDS011;51386;53.082;8.816;2023-03-20T15:03:51;7.03;;;4.37;;
64887;SDS011;51386;53.082;8.816;2023-03-20T15:06:25;8.07;;;5.27;;
64887;SDS011;51386;53.082;8.816;2023-03-20T15:08:54;7.27;;;5.03;;
64887;SDS011;51386;53.082;8.816;2023-03-20T15:11:26;8.13;;;4.50;;
64887;SDS011;51386;53.082;8.816;2023-03-20T15:13:55;6.00;;;4.50;;
64887;SDS011;51386;53.082;8.816;2023-03-20T15:16:26;7.57;;;5.13;;
64887;SDS011;51386;53.082;8.816;2023-03-20T15:18:56;8.67;;;5.23;;
64887;SDS011;51386;53.082;8.816;2023-03-20T15:21:26;9.53;;;5.50;;
64887;SDS011;51386;53.082;8.816;2023-03-20T15:23:58;6.63;;;4.90;;
64887;SDS011;51386;53.082;8.816;2023-03-20T15:26:27;8.00;;;4.57;;
64887;SDS011;51386;53.082;8.816;2023-03-20T15:29:00;6.50;;;4.23;;
64887;SDS011;51386;53.082;8.816;2023-03-20T15:31:31;5.80;;;4.37;;